Time;durP1;ratioP1;P1;durP2;ratioP2;P2;SDS_P1;SDS_P2;PMS_P1;PMS_P2;Temp;Humidity;BMP_temperature;BMP_pressure;BME280_temperature;BME280_humidity;BME280_pressure;Samples;Min_cycle;Max_cycle;Signal;HPM_P1;HPM_P2
2023/02/06 00:00:22;;;;;;;11.05;7.75;;;6.90;99.90;;;;;;5073734;28;20379;-42
2023/02/06 00:02:49;;;;;;;9.55;7.03;;;6.80;99.90;;;;;;5073725;28;20082;-43
2023/02/06 00:05:15;;;;;;;9.18;7.13;;;6.90;99.90;;;;;;5073734;28;20063;-35
2023/02/06 00:07:40;;;;;;;9.55;7.43;;;7.10;99.90;;;;;;5073561;28;20024;-32
2023/02/06 00:10:07;;;;;;;10.73;8.27;;;7.30;99.90;;;;;;5073570;28;20107;-43
2023/02/06 00:12:32;;;;;;;11.25;8.18;;;7.40;99.90;;;;;;5073878;28;20450;-44
2023/02/06 00:14:58;;;;;;;10.13;7.53;;;7.40;99.90;;;;;;5073537;28;20067;-42
2023/02/06 00:17:24;;;;;;;10.55;7.78;;;7.40;99.90;;;;;;5073211;28;20025;-36
2023/02/06 00:19:49;;;;;;;10.93;8.10;;;7.40;99.90;;;;;;5073378;28;20056;-40
2023/02/06 00:22:15;;;;;;;10.27;8.05;;;7.30;99.90;;;;;;5073353;28;20032;-42
2023/02/06 00:24:41;;;;;;;10.55;7.88;;;7.20;99.90;;;;;;5073263;28;20024;-43
2023/02/06 00:27:06;;;;;;;11.25;8.32;;;7.20;99.90;;;;;;5073064;28;20031;-42
2023/02/06 00:29:32;;;;;;;9.90;7.57;;;7.20;99.90;;;;;;5073266;28;20048;-40
2023/02/06 00:31:58;;;;;;;11.02;8.00;;;7.10;99.90;;;;;;5073204;28;20418;-39
2023/02/06 00:34:24;;;;;;;10.95;8.32;;;7.00;99.90;;;;;;5073343;28;20028;-35
2023/02/06 00:36:50;;;;;;;11.90;8.40;;;7.00;99.90;;;;;;5073196;28;20044;-45
2023/02/06 00:39:17;;;;;;;10.70;8.30;;;7.00;99.90;;;;;;5072906;28;20024;-42
2023/02/06 00:41:43;;;;;;;12.40;9.05;;;7.00;99.90;;;;;;5073132;28;20032;-37
2023/02/06 00:44:09;;;;;;;12.25;8.88;;;6.90;99.90;;;;;;5073028;28;20020;-37
2023/02/06 00:46:34;;;;;;;13.02;9.55;;;6.90;99.90;;;;;;5072653;28;20510;-45
2023/02/06 00:49:00;;;;;;;12.30;9.30;;;6.90;99.90;;;;;;5072126;28;20025;-35
2023/02/06 00:51:26;;;;;;;11.43;8.75;;;6.90;99.90;;;;;;5073792;28;20047;-45
2023/02/06 00:53:51;;;;;;;11.23;8.60;;;6.80;99.90;;;;;;5072674;28;20135;-43
2023/02/06 00:56:17;;;;;;;12.20;8.73;;;6.80;99.90;;;;;;5072508;28;20043;-35
2023/02/06 00:58:43;;;;;;;12.85;9.13;;;6.80;99.90;;;;;;5072594;28;20085;-44
2023/02/06 01:01:08;;;;;;;13.05;8.85;;;6.80;99.90;;;;;;5072774;28;20028;-44
2023/02/06 01:03:34;;;;;;;12.52;9.00;;;6.80;99.90;;;;;;5072611;28;20445;-43
2023/02/06 01:06:00;;;;;;;13.05;9.48;;;6.90;99.90;;;;;;5072400;28;20025;-41
2023/02/06 01:08:25;;;;;;;12.52;9.15;;;7.10;99.90;;;;;;5072450;28;20552;-41
2023/02/06 01:10:51;;;;;;;14.13;9.60;;;7.30;99.90;;;;;;5072996;28;20087;-44
2023/02/06 01:13:17;;;;;;;13.93;9.85;;;7.40;99.90;;;;;;5072610;28;20066;-44
2023/02/06 01:15:43;;;;;;;13.27;9.70;;;7.40;99.90;;;;;;5072216;28;20144;-44
2023/02/06 01:18:08;;;;;;;13.02;9.48;;;7.40;99.90;;;;;;5072840;28;20052;-34
2023/02/06 01:20:34;;;;;;;14.35;10.48;;;7.30;99.90;;;;;;5072190;28;20077;-38
2023/02/06 01:23:00;;;;;;;14.40;10.23;;;7.30;99.90;;;;;;5072115;28;20029;-45
2023/02/06 01:25:26;;;;;;;13.70;9.82;;;7.20;99.90;;;;;;5072161;28;20046;-38
2023/02/06 01:27:51;;;;;;;14.73;10.55;;;7.20;99.90;;;;;;5071871;28;20025;-35
2023/02/06 01:30:17;;;;;;;13.32;9.80;;;7.10;99.90;;;;;;5072058;28;20163;-36
2023/02/06 01:32:42;;;;;;;14.32;10.35;;;7.10;99.90;;;;;;5071991;28;20051;-41
2023/02/06 01:35:10;;;;;;;13.18;10.02;;;7.00;99.90;;;;;;5071977;28;20025;-45
2023/02/06 01:37:37;;;;;;;14.18;9.98;;;7.00;99.90;;;;;;5071884;28;20382;-33
2023/02/06 01:40:05;;;;;;;16.00;10.52;;;7.00;99.90;;;;;;5071987;28;20066;-44
2023/02/06 01:42:36;;;;;;;14.80;10.38;;;7.00;99.90;;;;;;5071702;28;20024;-33
2023/02/06 01:45:22;;;;;;;14.15;9.50;;;6.90;99.90;;;;;;5072181;28;20028;-36
2023/02/06 01:47:50;;;;;;;12.70;9.52;;;6.90;99.90;;;;;;5071588;28;20017;-35
2023/02/06 01:50:16;;;;;;;14.93;10.18;;;6.90;99.90;;;;;;5071644;28;20031;-33
2023/02/06 01:52:42;;;;;;;16.27;10.75;;;6.80;99.90;;;;;;5071680;28;20378;-38
2023/02/06 01:55:07;;;;;;;14.93;10.43;;;6.80;99.90;;;;;;5071651;28;20028;-44
2023/02/06 01:57:33;;;;;;;15.55;11.13;;;6.80;99.90;;;;;;5071439;28;20038;-44
2023/02/06 02:00:04;;;;;;;15.15;10.52;;;6.80;99.90;;;;;;5071421;28;20064;-45
2023/02/06 02:02:31;;;;;;;16.90;11.00;;;6.80;99.90;;;;;;5071414;28;20032;-45
2023/02/06 02:04:58;;;;;;;17.42;11.40;;;6.80;99.90;;;;;;5070552;28;20063;-44
2023/02/06 02:07:31;;;;;;;17.27;11.63;;;7.00;99.90;;;;;;5071554;28;20485;-34
2023/02/06 02:09:57;;;;;;;17.03;11.13;;;7.30;99.90;;;;;;5071506;28;20063;-44
2023/02/06 02:12:23;;;;;;;16.00;11.50;;;7.40;99.90;;;;;;5071480;28;20294;-37
2023/02/06 02:14:50;;;;;;;17.17;11.52;;;7.40;99.90;;;;;;5071377;28;20035;-41
2023/02/06 02:17:42;;;;;;;16.10;11.45;;;7.40;99.90;;;;;;5071103;28;20028;-38
2023/02/06 02:20:38;;;;;;;16.08;10.95;;;7.30;99.90;;;;;;5071378;28;20437;-44
2023/02/06 02:23:19;;;;;;;17.88;11.77;;;7.30;99.90;;;;;;5071356;28;20029;-45
2023/02/06 02:26:17;;;;;;;18.02;12.02;;;7.20;99.90;;;;;;5071486;28;20547;-33
2023/02/06 02:29:08;;;;;;;17.65;11.80;;;7.10;99.90;;;;;;5071248;28;20375;-40
2023/02/06 02:32:09;;;;;;;18.05;12.20;;;7.10;99.90;;;;;;5071032;28;20028;-37
2023/02/06 02:34:53;;;;;;;16.48;10.88;;;7.00;99.90;;;;;;5071198;28;20031;-36
2023/02/06 02:37:40;;;;;;;16.58;11.43;;;7.00;99.90;;;;;;5070941;28;20104;-36
2023/02/06 02:40:30;;;;;;;17.77;12.07;;;6.90;99.90;;;;;;5071011;28;20032;-44
2023/02/06 02:43:12;;;;;;;16.83;11.73;;;6.90;99.90;;;;;;5071055;28;20490;-39
2023/02/06 02:45:47;;;;;;;17.23;11.50;;;6.90;99.90;;;;;;5070994;28;20029;-40
2023/02/06 02:48:26;;;;;;;19.08;12.60;;;6.90;99.90;;;;;;5071063;28;20024;-36
2023/02/06 02:50:54;;;;;;;18.98;12.65;;;6.80;99.90;;;;;;5070967;28;20086;-35
2023/02/06 02:53:20;;;;;;;18.10;12.82;;;6.80;99.90;;;;;;5071027;28;20103;-40
2023/02/06 02:55:46;;;;;;;19.30;13.10;;;6.80;99.90;;;;;;5071349;28;20186;-37
2023/02/06 02:58:15;;;;;;;17.67;12.40;;;6.80;99.90;;;;;;5071349;28;20867;-34
2023/02/06 03:00:55;;;;;;;17.23;11.88;;;6.80;99.90;;;;;;5071085;28;20028;-44
2023/02/06 03:03:27;;;;;;;19.38;12.43;;;6.80;99.90;;;;;;5070964;28;20161;-35
2023/02/06 03:06:07;;;;;;;18.00;12.60;;;6.90;99.90;;;;;;5070803;28;20032;-43
2023/02/06 03:08:48;;;;;;;18.20;12.10;;;7.10;99.90;;;;;;5070982;28;20478;-37
2023/02/06 03:11:17;;;;;;;17.85;12.10;;;7.40;99.90;;;;;;5072383;28;20036;-37
2023/02/06 03:13:57;;;;;;;18.45;12.57;;;7.50;99.90;;;;;;5074717;28;20023;-43
2023/02/06 03:16:28;;;;;;;17.73;11.88;;;7.50;99.90;;;;;;5074448;28;20073;-38
2023/02/06 03:19:13;;;;;;;19.45;12.65;;;7.40;99.90;;;;;;5074660;28;20016;-36
2023/02/06 03:21:41;;;;;;;20.40;13.05;;;7.40;99.90;;;;;;5074395;28;20021;-36
2023/02/06 03:24:32;;;;;;;18.38;12.90;;;7.30;99.90;;;;;;5074754;28;20043;-44
2023/02/06 03:27:02;;;;;;;17.02;12.65;;;7.20;99.90;;;;;;5074090;28;20035;-39
2023/02/06 03:29:32;;;;;;;21.42;13.95;;;7.10;99.90;;;;;;5074303;28;20077;-37
2023/02/06 03:32:29;;;;;;;19.33;12.90;;;7.10;99.90;;;;;;5074266;28;20466;-38
2023/02/06 03:35:02;;;;;;;19.83;12.65;;;7.00;99.90;;;;;;5073085;28;20043;-34
2023/02/06 03:37:30;;;;;;;18.55;12.68;;;7.00;99.90;;;;;;5074041;28;20043;-34
2023/02/06 03:39:58;;;;;;;18.63;12.50;;;7.00;99.90;;;;;;5074157;28;20479;-44
2023/02/06 03:42:25;;;;;;;19.85;13.20;;;6.90;99.90;;;;;;5074209;28;20031;-36
2023/02/06 03:45:01;;;;;;;19.73;12.98;;;6.90;99.90;;;;;;5075347;28;20029;-39
2023/02/06 03:47:28;;;;;;;20.33;13.40;;;6.80;99.90;;;;;;5074053;28;20032;-44
2023/02/06 03:49:57;;;;;;;20.23;13.80;;;6.90;99.90;;;;;;5074089;28;20343;-45
2023/02/06 03:52:26;;;;;;;20.10;13.52;;;6.80;99.90;;;;;;5074105;28;20028;-33
2023/02/06 03:55:01;;;;;;;20.25;13.07;;;6.80;99.90;;;;;;5073945;28;20055;-42
2023/02/06 03:57:30;;;;;;;19.75;13.52;;;6.80;99.90;;;;;;5073659;28;20891;-35
2023/02/06 03:59:55;;;;;;;21.35;13.07;;;6.70;99.90;;;;;;5073742;28;20049;-45
2023/02/06 04:02:23;;;;;;;19.48;12.95;;;6.80;99.90;;;;;;5073847;28;20032;-36
2023/02/06 04:04:48;;;;;;;20.48;13.57;;;6.80;99.90;;;;;;5074461;28;20032;-42
2023/02/06 04:07:24;;;;;;;19.55;13.40;;;7.00;99.90;;;;;;5073553;28;20021;-44
2023/02/06 04:09:49;;;;;;;20.25;13.38;;;7.20;99.90;;;;;;5073688;28;20082;-38
2023/02/06 04:12:16;;;;;;;20.67;13.80;;;7.40;99.90;;;;;;5073683;28;20482;-44
2023/02/06 04:14:42;;;;;;;21.65;14.00;;;7.40;99.90;;;;;;5073759;28;20479;-44
2023/02/06 04:17:09;;;;;;;18.67;13.18;;;7.40;99.90;;;;;;5073560;28;20032;-44
2023/02/06 04:19:35;;;;;;;19.55;13.40;;;7.40;99.90;;;;;;5073444;28;20064;-45
2023/02/06 04:22:02;;;;;;;20.30;13.82;;;7.30;99.90;;;;;;5073070;28;20072;-39
2023/02/06 04:24:28;;;;;;;20.23;13.32;;;7.20;99.90;;;;;;5072660;28;20020;-36
2023/02/06 04:26:54;;;;;;;21.50;14.27;;;7.20;99.90;;;;;;5073086;28;20021;-37
2023/02/06 04:29:19;;;;;;;22.75;14.10;;;7.10;99.90;;;;;;5073277;28;20043;-38
2023/02/06 04:31:46;;;;;;;20.45;13.45;;;7.10;99.90;;;;;;5073611;28;20056;-44
2023/02/06 04:34:11;;;;;;;18.92;12.80;;;7.00;99.90;;;;;;5073386;28;20086;-37
2023/02/06 04:36:37;;;;;;;22.23;14.05;;;7.00;99.90;;;;;;5073517;28;20025;-36
2023/02/06 04:39:04;;;;;;;21.20;14.35;;;6.90;99.90;;;;;;5073163;28;20163;-43
2023/02/06 04:41:30;;;;;;;22.05;14.30;;;6.90;99.90;;;;;;5072970;28;20036;-39
2023/02/06 04:43:56;;;;;;;20.92;13.68;;;6.90;99.90;;;;;;5073283;28;20025;-45
2023/02/06 04:46:21;;;;;;;22.50;14.43;;;6.80;99.90;;;;;;5072814;28;20501;-44
2023/02/06 04:48:47;;;;;;;22.63;15.00;;;6.80;99.90;;;;;;5072968;28;20029;-44
2023/02/06 04:51:13;;;;;;;22.02;13.93;;;6.80;99.90;;;;;;5072659;28;20020;-45
2023/02/06 04:53:39;;;;;;;21.48;14.13;;;6.80;99.90;;;;;;5072876;28;20090;-44
2023/02/06 04:56:07;;;;;;;20.27;13.57;;;6.70;99.90;;;;;;5072530;28;20024;-39
2023/02/06 04:58:33;;;;;;;21.10;14.73;;;6.70;99.90;;;;;;5072634;28;20025;-42
2023/02/06 05:00:59;;;;;;;21.48;13.95;;;6.70;99.90;;;;;;5072734;28;20025;-36
2023/02/06 05:03:24;;;;;;;22.08;14.05;;;6.70;99.90;;;;;;5072614;28;20444;-37
2023/02/06 05:05:51;;;;;;;20.23;14.02;;;6.80;99.90;;;;;;5072323;28;20517;-44
2023/02/06 05:08:17;;;;;;;20.60;14.18;;;7.00;99.90;;;;;;5072542;28;20028;-39
2023/02/06 05:10:43;;;;;;;22.85;14.77;;;7.20;99.90;;;;;;5073368;28;20035;-40
2023/02/06 05:13:09;;;;;;;22.45;14.35;;;7.40;99.90;;;;;;5072938;28;20028;-40
2023/02/06 05:15:38;;;;;;;23.48;14.40;;;7.40;99.90;;;;;;5072584;28;20100;-33
2023/02/06 05:18:04;;;;;;;22.00;14.60;;;7.40;99.90;;;;;;5072793;28;20035;-37
2023/02/06 05:20:30;;;;;;;22.30;14.57;;;7.30;99.90;;;;;;5072088;28;20021;-42
2023/02/06 05:22:55;;;;;;;22.70;14.70;;;7.30;99.90;;;;;;5072251;28;20032;-39
2023/02/06 05:25:21;;;;;;;23.00;15.13;;;7.20;99.90;;;;;;5072108;28;20095;-33
2023/02/06 05:27:46;;;;;;;21.20;14.23;;;7.20;99.90;;;;;;5072350;28;20497;-38
2023/02/06 05:30:13;;;;;;;23.52;14.90;;;7.10;99.90;;;;;;5071047;28;20028;-45
2023/02/06 05:32:39;;;;;;;22.52;14.07;;;7.00;99.90;;;;;;5072367;28;20028;-35
2023/02/06 05:35:06;;;;;;;22.92;14.40;;;7.00;99.90;;;;;;5070407;28;20490;-35
2023/02/06 05:37:32;;;;;;;22.33;13.85;;;7.00;99.90;;;;;;5070556;28;20141;-40
2023/02/06 05:39:57;;;;;;;24.17;15.85;;;6.90;99.90;;;;;;5071752;28;20444;-36
2023/02/06 05:42:23;;;;;;;25.05;15.23;;;6.90;99.90;;;;;;5071901;28;20372;-44
2023/02/06 05:44:49;;;;;;;46.47;27.33;;;6.80;99.90;;;;;;5071942;28;20043;-44
2023/02/06 05:47:14;;;;;;;41.92;24.90;;;6.60;99.90;;;;;;5071463;28;20021;-44
2023/02/06 05:49:42;;;;;;;45.53;25.60;;;6.40;99.90;;;;;;5071793;28;20028;-36
2023/02/06 05:52:08;;;;;;;45.42;26.45;;;6.30;99.90;;;;;;5071844;28;20099;-43
2023/02/06 05:54:34;;;;;;;51.15;28.08;;;6.30;99.90;;;;;;5071525;28;20107;-43
2023/02/06 05:57:00;;;;;;;44.53;26.35;;;6.30;99.90;;;;;;5071365;28;20032;-37
2023/02/06 05:59:25;;;;;;;49.67;27.95;;;6.30;99.90;;;;;;5071392;28;20486;-44
2023/02/06 06:01:51;;;;;;;41.33;25.70;;;6.30;99.90;;;;;;5071448;28;20032;-35
2023/02/06 06:04:17;;;;;;;44.40;25.40;;;6.30;99.90;;;;;;5071784;28;20080;-35
2023/02/06 06:06:43;;;;;;;40.90;24.13;;;6.50;99.90;;;;;;5071594;28;20020;-44
2023/02/06 06:09:08;;;;;;;40.67;25.55;;;6.80;99.90;;;;;;5071447;28;20423;-44
2023/02/06 06:11:34;;;;;;;42.80;24.20;;;7.00;99.90;;;;;;5071525;28;20028;-40
2023/02/06 06:14:00;;;;;;;43.78;24.77;;;7.10;99.90;;;;;;5072710;28;20613;-43
2023/02/06 06:16:26;;;;;;;42.90;25.38;;;7.10;99.90;;;;;;5071221;28;20394;-38
2023/02/06 06:18:52;;;;;;;38.67;23.88;;;7.10;99.90;;;;;;5071192;28;20029;-44
2023/02/06 06:21:17;;;;;;;39.88;24.38;;;7.00;99.90;;;;;;5071261;28;20029;-42
2023/02/06 06:23:43;;;;;;;42.20;23.88;;;7.00;99.90;;;;;;5071258;28;20027;-44
2023/02/06 06:26:09;;;;;;;37.63;22.63;;;6.90;99.90;;;;;;5071491;28;20485;-44
2023/02/06 06:28:37;;;;;;;39.35;23.48;;;6.90;99.90;;;;;;5071326;28;20035;-44
2023/02/06 06:31:05;;;;;;;39.80;24.02;;;6.90;99.90;;;;;;5070353;28;20087;-44
2023/02/06 06:33:31;;;;;;;37.53;23.60;;;6.80;99.90;;;;;;5071935;28;20063;-43
2023/02/06 06:35:56;;;;;;;39.33;23.50;;;6.80;99.90;;;;;;5071162;28;20114;-35
2023/02/06 06:38:22;;;;;;;40.80;23.63;;;6.70;99.90;;;;;;5071254;28;20094;-41
2023/02/06 06:40:48;;;;;;;42.13;24.38;;;6.70;99.90;;;;;;5071247;28;20544;-40
2023/02/06 06:43:14;;;;;;;36.10;23.13;;;6.70;99.90;;;;;;5071044;28;20025;-37
2023/02/06 06:45:39;;;;;;;38.78;24.05;;;6.70;99.90;;;;;;5071098;28;20036;-37
2023/02/06 06:48:05;;;;;;;37.30;23.50;;;6.70;99.90;;;;;;5075557;28;20016;-36
2023/02/06 06:50:31;;;;;;;35.60;22.35;;;6.60;99.90;;;;;;5075364;28;20037;-37
2023/02/06 06:52:56;;;;;;;39.10;22.75;;;6.60;99.90;;;;;;5075580;28;20032;-39
2023/02/06 06:55:22;;;;;;;38.72;23.63;;;6.60;99.90;;;;;;5075104;28;20025;-37
2023/02/06 06:57:48;;;;;;;34.55;21.63;;;6.60;99.90;;;;;;5075142;28;20027;-36
2023/02/06 07:00:14;;;;;;;34.15;21.67;;;6.60;99.90;;;;;;5074789;28;20037;-44
2023/02/06 07:02:41;;;;;;;35.08;22.40;;;6.60;99.90;;;;;;5075049;28;20577;-36
2023/02/06 07:05:07;;;;;;;37.25;21.55;;;6.60;99.90;;;;;;5073578;28;20082;-44
2023/02/06 07:07:33;;;;;;;34.70;21.02;;;6.80;99.90;;;;;;5073262;28;20478;-43
2023/02/06 07:09:59;;;;;;;33.90;22.25;;;7.00;99.90;;;;;;5074779;28;20035;-35
2023/02/06 07:12:26;;;;;;;33.13;20.92;;;7.20;99.90;;;;;;5074779;28;20024;-41
2023/02/06 07:14:52;;;;;;;35.05;21.35;;;7.20;99.90;;;;;;5074708;28;20413;-44
2023/02/06 07:17:18;;;;;;;32.88;21.70;;;7.20;99.90;;;;;;5074725;28;20040;-44
2023/02/06 07:19:48;;;;;;;34.63;21.50;;;7.10;99.90;;;;;;5074724;28;20029;-44
2023/02/06 07:22:14;;;;;;;33.90;20.90;;;7.10;99.90;;;;;;5074629;28;20474;-37
2023/02/06 07:24:40;;;;;;;33.88;21.08;;;7.00;99.90;;;;;;5074631;28;20426;-39
2023/02/06 07:27:06;;;;;;;33.05;20.88;;;7.00;99.90;;;;;;5074428;28;20028;-42
2023/02/06 07:29:32;;;;;;;32.92;20.73;;;6.90;99.90;;;;;;5074733;28;20039;-44
2023/02/06 07:31:57;;;;;;;32.50;20.58;;;6.90;99.90;;;;;;5074673;28;20425;-44
2023/02/06 07:34:23;;;;;;;31.17;20.58;;;6.80;99.90;;;;;;5074497;28;20078;-44
2023/02/06 07:36:49;;;;;;;35.47;22.52;;;6.70;99.90;;;;;;5073936;28;20108;-38
2023/02/06 07:39:15;;;;;;;37.33;25.77;;;6.70;99.90;;;;;;5074124;28;20522;-43
2023/02/06 07:41:41;;;;;;;43.10;26.65;;;6.50;99.90;;;;;;5074183;28;20037;-38
2023/02/06 07:44:09;;;;;;;43.65;26.70;;;6.30;99.90;;;;;;5074143;28;20052;-44
2023/02/06 07:46:35;;;;;;;43.20;26.90;;;6.20;99.90;;;;;;5073890;28;20028;-38
2023/02/06 07:49:01;;;;;;;39.10;26.73;;;6.10;99.90;;;;;;5074108;28;20391;-38
2023/02/06 07:51:26;;;;;;;40.13;25.67;;;6.10;99.90;;;;;;5074402;28;20379;-33
2023/02/06 07:53:52;;;;;;;37.13;26.13;;;6.10;99.90;;;;;;5074011;28;20059;-34
2023/02/06 07:56:22;;;;;;;40.22;26.55;;;6.10;99.90;;;;;;5072525;28;20021;-43
2023/02/06 07:58:52;;;;;;;39.47;26.08;;;6.10;99.90;;;;;;5073597;28;20040;-42
2023/02/06 08:01:19;;;;;;;37.22;25.65;;;6.20;99.90;;;;;;5073703;28;20028;-44
2023/02/06 08:03:47;;;;;;;35.80;25.05;;;6.20;99.90;;;;;;5073929;28;20021;-44
2023/02/06 08:06:14;;;;;;;35.22;24.80;;;6.20;99.90;;;;;;5073929;28;20025;-44
2023/02/06 08:08:41;;;;;;;36.65;23.40;;;6.20;99.90;;;;;;5073800;28;20021;-38
2023/02/06 08:11:08;;;;;;;35.58;24.10;;;6.30;99.90;;;;;;5074325;28;20078;-36
2023/02/06 08:13:34;;;;;;;35.17;24.40;;;6.30;99.90;;;;;;5073752;28;20021;-35
2023/02/06 08:16:09;;;;;;;35.13;22.95;;;6.30;99.90;;;;;;5073703;28;20037;-36
2023/02/06 08:18:36;;;;;;;33.92;23.08;;;6.30;99.90;;;;;;5073797;28;20490;-44
2023/02/06 08:21:08;;;;;;;35.08;22.75;;;6.30;99.90;;;;;;5073411;28;20401;-44
2023/02/06 08:23:34;;;;;;;32.20;22.15;;;6.40;99.90;;;;;;5073480;28;20020;-44
2023/02/06 08:26:09;;;;;;;31.08;21.63;;;6.40;99.90;;;;;;5073193;28;20478;-41
2023/02/06 08:28:36;;;;;;;29.70;21.50;;;6.40;99.90;;;;;;5073856;28;20032;-42
2023/02/06 08:31:16;;;;;;;29.20;21.45;;;6.40;99.90;;;;;;5073296;28;20031;-35
2023/02/06 08:33:43;;;;;;;29.48;21.33;;;6.40;99.90;;;;;;5073378;28;20024;-42
2023/02/06 08:36:10;;;;;;;30.77;20.25;;;6.40;99.90;;;;;;5072930;28;20103;-36
2023/02/06 08:38:36;;;;;;;30.90;21.15;;;6.40;99.90;;;;;;5073309;28;20478;-38
2023/02/06 08:41:02;;;;;;;27.60;20.88;;;6.40;99.90;;;;;;5072947;28;20038;-39
2023/02/06 08:43:27;;;;;;;29.90;20.38;;;6.50;99.90;;;;;;5073044;28;20028;-42
2023/02/06 08:45:56;;;;;;;29.17;21.02;;;6.40;99.90;;;;;;5073080;28;20032;-37
2023/02/06 08:48:22;;;;;;;28.67;20.17;;;6.50;99.90;;;;;;5072900;28;20021;-34
2023/02/06 08:50:48;;;;;;;29.50;20.85;;;6.50;99.90;;;;;;5073057;28;20025;-37
2023/02/06 08:53:13;;;;;;;26.60;18.58;;;6.50;99.90;;;;;;5072986;28;20029;-35
2023/02/06 08:55:39;;;;;;;26.38;19.00;;;6.50;99.90;;;;;;5072692;28;20021;-39
2023/02/06 08:58:05;;;;;;;23.42;17.52;;;6.50;99.90;;;;;;5072545;28;20025;-43
2023/02/06 09:00:30;;;;;;;25.25;18.08;;;6.50;99.90;;;;;;5073301;28;20490;-44
2023/02/06 09:02:56;;;;;;;24.73;17.67;;;6.50;99.90;;;;;;5072716;28;20023;-36
2023/02/06 09:05:22;;;;;;;23.77;17.45;;;6.50;99.90;;;;;;5072526;28;20066;-42
2023/02/06 09:07:48;;;;;;;24.80;17.70;;;6.50;99.90;;;;;;5072514;28;20454;-42
2023/02/06 09:10:14;;;;;;;23.40;17.25;;;6.50;99.90;;;;;;5072342;28;20055;-44
2023/02/06 09:12:40;;;;;;;23.73;17.25;;;6.50;99.90;;;;;;5072637;28;20032;-44
2023/02/06 09:15:06;;;;;;;24.70;16.88;;;6.60;99.90;;;;;;5072810;28;20386;-39
2023/02/06 09:17:32;;;;;;;25.52;16.77;;;6.60;99.90;;;;;;5072090;28;20098;-44
2023/02/06 09:19:59;;;;;;;23.48;16.35;;;6.60;99.90;;;;;;5072556;28;20052;-41
2023/02/06 09:22:25;;;;;;;28.50;16.67;;;6.60;99.90;;;;;;5072711;28;20036;-40
2023/02/06 09:24:50;;;;;;;20.95;15.82;;;6.60;99.90;;;;;;5072122;28;20024;-39
2023/02/06 09:27:16;;;;;;;20.50;15.23;;;6.60;99.90;;;;;;5072105;28;20542;-44
2023/02/06 09:29:42;;;;;;;19.67;14.68;;;6.60;99.90;;;;;;5072037;28;20107;-37
2023/02/06 09:32:07;;;;;;;21.48;15.45;;;6.60;99.90;;;;;;5072170;28;20103;-39
2023/02/06 09:34:33;;;;;;;19.10;14.10;;;6.60;99.90;;;;;;5072005;28;20021;-43
2023/02/06 09:37:03;;;;;;;19.42;14.20;;;6.60;99.90;;;;;;5072029;28;20035;-43
2023/02/06 09:39:30;;;;;;;17.98;14.02;;;6.60;99.90;;;;;;5071970;28;20031;-39
2023/02/06 09:42:04;;;;;;;19.55;14.00;;;6.60;99.90;;;;;;5070896;28;20098;-37
2023/02/06 09:44:40;;;;;;;21.20;15.07;;;6.60;99.90;;;;;;5071950;28;20044;-36
2023/02/06 09:47:27;;;;;;;18.00;12.93;;;6.70;99.90;;;;;;5070466;28;20541;-39
2023/02/06 09:49:58;;;;;;;18.10;13.45;;;6.60;99.90;;;;;;5071711;28;20650;-38
2023/02/06 09:52:42;;;;;;;16.13;12.38;;;6.70;99.90;;;;;;5071771;28;20467;-44
2023/02/06 09:55:23;;;;;;;17.17;12.40;;;6.70;99.90;;;;;;5071821;28;20048;-41
2023/02/06 09:58:08;;;;;;;17.77;12.45;;;6.70;99.90;;;;;;5071464;28;20025;-35
2023/02/06 10:00:40;;;;;;;19.10;12.55;;;6.70;99.90;;;;;;5071583;28;20067;-42
2023/02/06 10:03:32;;;;;;;16.77;12.07;;;6.70;99.90;;;;;;5071798;28;20490;-40
2023/02/06 10:06:06;;;;;;;15.98;11.70;;;6.70;99.90;;;;;;5071668;28;20104;-40
2023/02/06 10:08:58;;;;;;;17.35;11.98;;;6.70;99.90;;;;;;5071539;28;20055;-43
2023/02/06 10:11:30;;;;;;;16.05;12.25;;;6.70;99.90;;;;;;5072009;28;20021;-34
2023/02/06 10:14:04;;;;;;;18.98;12.35;;;6.70;99.90;;;;;;5071521;28;20062;-44
2023/02/06 10:16:52;;;;;;;19.25;11.85;;;6.70;99.90;;;;;;5071351;28;20021;-44
2023/02/06 10:19:29;;;;;;;18.83;11.88;;;6.50;99.90;;;;;;5071643;28;20024;-44
2023/02/06 10:22:05;;;;;;;17.60;11.95;;;6.30;99.90;;;;;;5070330;28;20471;-44
2023/02/06 10:24:36;;;;;;;17.38;12.10;;;6.30;99.90;;;;;;5072522;28;20017;-42
2023/02/06 10:27:08;;;;;;;19.45;12.52;;;6.30;99.90;;;;;;5071018;28;20021;-44
2023/02/06 10:29:35;;;;;;;17.88;13.10;;;6.30;99.90;;;;;;5071149;28;20069;-44
2023/02/06 10:32:15;;;;;;;22.50;12.60;;;6.30;99.90;;;;;;5069903;28;20067;-39
2023/02/06 10:34:54;;;;;;;21.13;12.23;;;6.30;99.90;;;;;;5071176;28;20047;-44
2023/02/06 10:37:28;;;;;;;17.20;12.20;;;6.30;99.90;;;;;;5070957;28;20069;-38
2023/02/06 10:40:14;;;;;;;18.97;11.80;;;6.30;99.90;;;;;;5071169;28;20028;-37
2023/02/06 10:42:45;;;;;;;17.92;12.20;;;6.30;99.90;;;;;;5071148;28;20021;-41
2023/02/06 10:45:31;;;;;;;19.33;12.27;;;6.40;99.90;;;;;;5072115;28;20479;-35
2023/02/06 10:48:12;;;;;;;19.67;11.48;;;6.30;99.90;;;;;;5070390;28;20024;-38
2023/02/06 10:50:52;;;;;;;16.10;11.52;;;6.40;99.90;;;;;;5071037;28;20016;-39
2023/02/06 10:53:28;;;;;;;16.80;11.57;;;6.40;99.90;;;;;;5071029;28;20490;-38
2023/02/06 10:56:04;;;;;;;16.23;11.32;;;6.40;99.90;;;;;;5070763;28;20075;-37
2023/02/06 10:58:38;;;;;;;15.00;10.95;;;6.40;99.90;;;;;;5070796;28;20075;-43
2023/02/06 11:01:06;;;;;;;14.10;10.35;;;6.40;99.90;;;;;;5071141;28;20029;-44
2023/02/06 11:03:36;;;;;;;18.45;10.98;;;6.40;99.90;;;;;;5071426;28;20036;-43
2023/02/06 11:06:02;;;;;;;16.38;10.35;;;6.40;99.90;;;;;;5071222;28;20478;-44
2023/02/06 11:08:35;;;;;;;14.38;10.13;;;6.50;99.90;;;;;;5070936;28;20421;-37
2023/02/06 11:11:34;;;;;;;15.30;9.70;;;6.50;99.90;;;;;;5070828;28;20107;-38
2023/02/06 11:14:18;;;;;;;13.63;9.90;;;6.40;99.90;;;;;;5070598;28;20109;-35
2023/02/06 11:16:45;;;;;;;15.57;10.67;;;6.50;99.90;;;;;;5070597;28;20104;-39
2023/02/06 11:19:24;;;;;;;15.70;9.25;;;6.50;99.90;;;;;;5070504;28;20046;-41
2023/02/06 11:21:52;;;;;;;15.82;9.27;;;6.50;99.90;;;;;;5070674;28;20094;-43
2023/02/06 11:24:21;;;;;;;15.00;9.88;;;6.50;99.90;;;;;;5071219;28;20020;-43
2023/02/06 11:26:50;;;;;;;14.25;9.07;;;6.50;99.90;;;;;;5070475;28;20298;-33
2023/02/06 11:29:27;;;;;;;13.88;8.63;;;6.50;99.90;;;;;;5070583;28;20123;-44
2023/02/06 11:31:57;;;;;;;13.40;9.02;;;6.50;99.90;;;;;;5070930;28;20039;-43
2023/02/06 11:34:30;;;;;;;13.05;9.13;;;6.50;99.90;;;;;;5074304;28;20021;-44
2023/02/06 11:37:16;;;;;;;12.68;9.05;;;6.50;99.90;;;;;;5074281;28;20428;-41
2023/02/06 11:39:41;;;;;;;13.73;9.38;;;6.50;99.90;;;;;;5074871;28;20090;-37
2023/02/06 11:42:16;;;;;;;13.13;8.88;;;6.50;99.90;;;;;;5074022;28;20471;-39
2023/02/06 11:44:43;;;;;;;10.38;8.10;;;6.50;99.90;;;;;;5074129;28;20017;-44
2023/02/06 11:47:34;;;;;;;11.60;8.43;;;6.50;99.90;;;;;;5075354;28;20025;-43
2023/02/06 11:50:12;;;;;;;12.40;8.40;;;6.50;99.90;;;;;;5074373;28;20504;-39
2023/02/06 11:52:39;;;;;;;12.23;8.70;;;6.50;99.90;;;;;;5073900;28;20107;-35
2023/02/06 11:55:05;;;;;;;10.65;8.02;;;6.50;99.90;;;;;;5073956;28;20028;-37
2023/02/06 11:57:32;;;;;;;10.75;7.57;;;6.50;99.90;;;;;;5073706;28;20028;-35
2023/02/06 12:00:02;;;;;;;12.30;8.15;;;6.50;99.90;;;;;;5073725;28;20518;-38
2023/02/06 12:02:29;;;;;;;11.48;7.65;;;6.50;99.90;;;;;;5072365;28;20115;-44
2023/02/06 12:05:11;;;;;;;12.65;7.68;;;6.50;99.90;;;;;;5073730;28;20021;-44
2023/02/06 12:08:01;;;;;;;10.10;7.80;;;6.50;99.90;;;;;;5073268;28;20486;-43
2023/02/06 12:10:30;;;;;;;10.05;7.05;;;6.50;99.90;;;;;;5073717;28;20031;-42
2023/02/06 12:13:15;;;;;;;9.60;7.10;;;6.50;99.90;;;;;;5073666;28;20035;-44
2023/02/06 12:15:44;;;;;;;10.43;7.63;;;6.50;99.90;;;;;;5073489;28;20025;-41
2023/02/06 12:18:37;;;;;;;11.75;6.85;;;6.50;99.90;;;;;;5073454;28;20096;-44
2023/02/06 12:21:14;;;;;;;10.95;7.13;;;6.50;99.90;;;;;;5073447;28;20023;-43
2023/02/06 12:23:42;;;;;;;10.88;7.07;;;6.50;99.90;;;;;;5073465;28;20366;-44
2023/02/06 12:26:18;;;;;;;9.30;6.82;;;6.50;99.90;;;;;;5073107;28;20071;-40
2023/02/06 12:28:58;;;;;;;11.10;7.65;;;6.50;99.90;;;;;;5073363;28;20017;-43
2023/02/06 12:31:30;;;;;;;9.55;6.47;;;6.50;99.90;;;;;;5073155;28;20086;-36
2023/02/06 12:34:11;;;;;;;10.32;6.60;;;6.50;99.90;;;;;;5073408;28;20087;-35
2023/02/06 12:36:52;;;;;;;9.88;6.60;;;6.50;99.90;;;;;;5072892;28;20044;-35
2023/02/06 12:39:21;;;;;;;8.93;6.55;;;6.50;99.90;;;;;;5073751;28;20017;-35
2023/02/06 12:42:19;;;;;;;11.75;6.78;;;6.50;99.90;;;;;;5073009;28;20478;-38
2023/02/06 12:44:58;;;;;;;9.52;6.50;;;6.50;99.90;;;;;;5072631;28;20052;-39
2023/02/06 12:47:50;;;;;;;8.18;6.10;;;6.50;99.90;;;;;;5072810;28;20378;-35
2023/02/06 12:51:00;;;;;;;8.43;6.32;;;6.50;99.90;;;;;;5074047;28;20031;-40
2023/02/06 12:53:44;;;;;;;11.07;7.07;;;6.50;99.90;;;;;;5072925;28;20036;-40
2023/02/06 12:56:32;;;;;;;14.23;7.55;;;6.40;99.90;;;;;;5075017;28;20108;-45